Time;durP1;ratioP1;P1;durP2;ratioP2;P2;SDS_P1;SDS_P2;PMS_P1;PMS_P2;Temp;Humidity;BMP_temperature;BMP_pressure;BME280_temperature;BME280_humidity;BME280_pressure;Samples;Min_cycle;Max_cycle;Signal;HPM_P1;HPM_P2
2023/11/08 00:00:22;;;;;;;9.60;6.40;;;;;;;;;;779568;179;828623;-64
2023/11/08 00:02:47;;;;;;;9.83;5.73;;;;;;;;;;775502;179;918425;-64
2023/11/08 00:05:12;;;;;;;8.40;5.37;;;;;;;;;;779421;179;820198;-64
2023/11/08 00:07:41;;;;;;;8.70;5.70;;;;;;;;;;770779;180;896372;-64
2023/11/08 00:10:05;;;;;;;12.53;6.20;;;;;;;;;;772980;179;916197;-64
2023/11/08 00:12:30;;;;;;;8.33;6.67;;;;;;;;;;772405;179;919755;-65
2023/11/08 00:14:57;;;;;;;10.63;6.40;;;;;;;;;;776664;179;911151;-64
2023/11/08 00:17:23;;;;;;;7.07;5.40;;;;;;;;;;770138;179;919062;-65
2023/11/08 00:19:48;;;;;;;7.53;5.97;;;;;;;;;;776806;179;819555;-63
2023/11/08 00:22:14;;;;;;;10.27;6.97;;;;;;;;;;780983;178;915751;-64
2023/11/08 00:24:40;;;;;;;9.20;5.60;;;;;;;;;;774371;179;920655;-63
2023/11/08 00:27:05;;;;;;;9.20;5.90;;;;;;;;;;775844;178;847716;-63
2023/11/08 00:29:32;;;;;;;6.65;4.35;;;;;;;;;;782406;179;820054;-64
2023/11/08 00:31:58;;;;;;;7.20;5.13;;;;;;;;;;769849;180;918960;-63
2023/11/08 00:34:23;;;;;;;8.50;5.78;;;;;;;;;;781927;177;918386;-63
2023/11/08 00:36:49;;;;;;;8.50;4.60;;;;;;;;;;776856;177;918628;-64
2023/11/08 00:39:15;;;;;;;8.80;4.60;;;;;;;;;;776753;180;817003;-63
2023/11/08 00:41:41;;;;;;;6.07;4.80;;;;;;;;;;778154;178;924301;-64
2023/11/08 00:44:09;;;;;;;9.00;6.10;;;;;;;;;;777440;178;869513;-64
2023/11/08 00:46:33;;;;;;;7.10;5.07;;;;;;;;;;779402;179;868792;-64
2023/11/08 00:48:59;;;;;;;10.23;6.90;;;;;;;;;;778717;178;940487;-66
2023/11/08 00:51:27;;;;;;;10.90;6.80;;;;;;;;;;780189;178;919327;-63
2023/11/08 00:53:50;;;;;;;8.50;6.43;;;;;;;;;;783344;177;910535;-65
2023/11/08 00:56:16;;;;;;;10.83;6.70;;;;;;;;;;780541;178;921696;-64
2023/11/08 00:58:42;;;;;;;10.70;7.40;;;;;;;;;;780743;177;818038;-65
2023/11/08 01:01:08;;;;;;;10.37;7.20;;;;;;;;;;777341;179;919176;-64
2023/11/08 01:03:34;;;;;;;11.70;7.70;;;;;;;;;;774783;179;819409;-64
2023/11/08 01:05:59;;;;;;;7.83;6.60;;;;;;;;;;774011;179;925945;-65
2023/11/08 01:08:25;;;;;;;15.57;8.30;;;;;;;;;;780240;179;919143;-64
2023/11/08 01:10:52;;;;;;;12.07;8.90;;;;;;;;;;783853;179;816663;-63
2023/11/08 01:13:18;;;;;;;8.43;6.57;;;;;;;;;;778368;176;916596;-64
2023/11/08 01:15:44;;;;;;;8.23;6.20;;;;;;;;;;775272;179;906117;-63
2023/11/08 01:18:11;;;;;;;9.83;6.80;;;;;;;;;;782668;179;905398;-63
2023/11/08 01:20:37;;;;;;;11.37;7.53;;;;;;;;;;775983;179;918846;-63
2023/11/08 01:23:03;;;;;;;9.48;6.60;;;;;;;;;;769749;179;919380;-64
2023/11/08 01:25:28;;;;;;;8.73;6.53;;;;;;;;;;775044;179;918359;-64
2023/11/08 01:27:54;;;;;;;8.90;7.00;;;;;;;;;;774468;178;918599;-64
2023/11/08 01:30:19;;;;;;;9.77;6.93;;;;;;;;;;775762;179;920616;-63
2023/11/08 01:32:45;;;;;;;10.27;6.80;;;;;;;;;;772450;176;921280;-64
2023/11/08 01:35:11;;;;;;;9.77;6.70;;;;;;;;;;781649;179;919504;-65
2023/11/08 01:37:39;;;;;;;9.77;6.90;;;;;;;;;;779017;177;919210;-63
2023/11/08 01:40:04;;;;;;;10.43;7.10;;;;;;;;;;774139;179;914218;-63
2023/11/08 01:42:29;;;;;;;8.57;6.77;;;;;;;;;;782947;179;854764;-65
2023/11/08 01:44:55;;;;;;;8.93;6.30;;;;;;;;;;774628;179;918899;-63
2023/11/08 01:47:21;;;;;;;8.33;6.97;;;;;;;;;;781185;178;914780;-65
2023/11/08 01:49:48;;;;;;;9.20;6.60;;;;;;;;;;779394;178;916514;-63
2023/11/08 01:52:14;;;;;;;9.03;6.70;;;;;;;;;;766312;180;918988;-65
2023/11/08 01:54:39;;;;;;;10.77;7.70;;;;;;;;;;781684;178;919514;-63
2023/11/08 01:57:05;;;;;;;9.70;7.63;;;;;;;;;;774140;175;920613;-63
2023/11/08 01:59:31;;;;;;;12.83;7.53;;;;;;;;;;780001;178;818452;-63
2023/11/08 02:01:58;;;;;;;10.07;7.00;;;;;;;;;;773826;177;920004;-63
2023/11/08 02:04:23;;;;;;;10.10;7.03;;;;;;;;;;778336;179;921908;-63
2023/11/08 02:06:49;;;;;;;11.55;8.70;;;;;;;;;;783059;179;917025;-63
2023/11/08 02:09:16;;;;;;;10.90;9.07;;;;;;;;;;779611;178;896567;-63
2023/11/08 02:11:41;;;;;;;11.17;8.30;;;;;;;;;;779765;179;919684;-63
2023/11/08 02:14:06;;;;;;;10.90;8.30;;;;;;;;;;781097;179;920026;-63
2023/11/08 02:16:33;;;;;;;11.60;8.60;;;;;;;;;;771806;179;919239;-64
2023/11/08 02:18:59;;;;;;;16.67;8.87;;;;;;;;;;779493;178;918858;-64
2023/11/08 02:21:24;;;;;;;8.40;7.40;;;;;;;;;;778163;179;918676;-64
2023/11/08 02:23:50;;;;;;;14.50;9.60;;;;;;;;;;781494;178;918984;-62
2023/11/08 02:26:16;;;;;;;12.70;9.47;;;;;;;;;;774303;179;928355;-63
2023/11/08 02:28:43;;;;;;;12.37;9.00;;;;;;;;;;776876;179;922457;-64
2023/11/08 02:31:08;;;;;;;15.30;9.97;;;;;;;;;;781599;179;918590;-64
2023/11/08 02:33:34;;;;;;;16.10;10.60;;;;;;;;;;777370;179;918705;-63
2023/11/08 02:36:00;;;;;;;13.50;9.87;;;;;;;;;;775513;179;918640;-63
2023/11/08 02:38:26;;;;;;;13.70;9.90;;;;;;;;;;780104;179;818415;-62
2023/11/08 02:40:52;;;;;;;14.60;10.87;;;;;;;;;;779992;179;817191;-63
2023/11/08 02:43:18;;;;;;;12.20;9.87;;;;;;;;;;772832;179;821224;-63
2023/11/08 02:45:44;;;;;;;15.77;10.80;;;;;;;;;;776357;179;919215;-63
2023/11/08 02:48:09;;;;;;;11.60;9.20;;;;;;;;;;779355;177;813347;-64
2023/11/08 02:50:37;;;;;;;14.13;9.40;;;;;;;;;;779076;178;877370;-64
2023/11/08 02:53:02;;;;;;;13.87;9.17;;;;;;;;;;774153;178;815582;-63
2023/11/08 02:55:28;;;;;;;15.57;8.87;;;;;;;;;;784456;178;917691;-63
2023/11/08 02:57:54;;;;;;;12.40;9.33;;;;;;;;;;781172;176;916129;-63
2023/11/08 03:00:20;;;;;;;12.10;9.17;;;;;;;;;;772967;177;918156;-64
2023/11/08 03:02:45;;;;;;;14.70;11.10;;;;;;;;;;779212;178;846794;-64
2023/11/08 03:05:11;;;;;;;14.77;10.23;;;;;;;;;;775465;178;917994;-63
2023/11/08 03:07:37;;;;;;;15.57;9.30;;;;;;;;;;773899;178;920445;-64
2023/11/08 03:10:04;;;;;;;12.80;9.18;;;;;;;;;;774085;178;918512;-65
2023/11/08 03:12:29;;;;;;;12.47;7.63;;;;;;;;;;770869;178;932697;-63
2023/11/08 03:14:55;;;;;;;13.57;8.80;;;;;;;;;;776244;179;919514;-63
2023/11/08 03:17:21;;;;;;;19.35;11.27;;;;;;;;;;776405;178;1015846;-63
2023/11/08 03:19:47;;;;;;;16.07;9.30;;;;;;;;;;785896;179;814928;-65
2023/11/08 03:22:13;;;;;;;13.32;8.40;;;;;;;;;;776006;179;921796;-64
2023/11/08 03:24:39;;;;;;;13.80;8.20;;;;;;;;;;776992;179;920046;-63
2023/11/08 03:27:05;;;;;;;10.87;7.77;;;;;;;;;;781036;178;818349;-65
2023/11/08 03:29:31;;;;;;;10.53;7.23;;;;;;;;;;775931;179;919107;-63
2023/11/08 03:31:57;;;;;;;9.57;7.70;;;;;;;;;;778912;177;921452;-65
2023/11/08 03:34:23;;;;;;;10.93;7.72;;;;;;;;;;778503;179;919199;-63
2023/11/08 03:36:49;;;;;;;12.90;8.83;;;;;;;;;;780514;180;918755;-64
2023/11/08 03:39:16;;;;;;;10.60;7.63;;;;;;;;;;775017;178;920474;-65
2023/11/08 03:41:41;;;;;;;7.80;6.50;;;;;;;;;;776974;179;918737;-63
2023/11/08 03:44:07;;;;;;;11.37;8.30;;;;;;;;;;781238;179;919244;-64
2023/11/08 03:46:32;;;;;;;10.47;7.20;;;;;;;;;;779180;179;924388;-63
2023/11/08 03:48:58;;;;;;;14.10;7.30;;;;;;;;;;772807;178;916933;-63
2023/11/08 03:51:24;;;;;;;9.63;7.17;;;;;;;;;;783760;179;919376;-63
2023/11/08 03:53:51;;;;;;;10.27;7.00;;;;;;;;;;776064;179;910209;-65
2023/11/08 03:56:17;;;;;;;9.83;6.90;;;;;;;;;;776345;178;919950;-63
2023/11/08 03:58:42;;;;;;;11.17;6.17;;;;;;;;;;776190;176;916647;-64
2023/11/08 04:01:08;;;;;;;11.97;7.73;;;;;;;;;;776092;179;914631;-64
2023/11/08 04:03:33;;;;;;;10.03;6.77;;;;;;;;;;774069;177;916749;-66
2023/11/08 04:05:59;;;;;;;9.40;6.30;;;;;;;;;;778307;179;876464;-64
2023/11/08 04:08:25;;;;;;;9.53;6.80;;;;;;;;;;780885;177;920641;-63
2023/11/08 04:10:52;;;;;;;11.63;6.40;;;;;;;;;;778578;178;918497;-63
2023/11/08 04:13:17;;;;;;;10.00;6.20;;;;;;;;;;774863;178;918263;-64
2023/11/08 04:15:43;;;;;;;7.53;5.73;;;;;;;;;;775677;178;919322;-65
2023/11/08 04:18:08;;;;;;;11.63;6.07;;;;;;;;;;775294;178;919405;-65
2023/11/08 04:20:34;;;;;;;8.00;5.90;;;;;;;;;;775330;178;881114;-64
2023/11/08 04:23:00;;;;;;;8.73;5.23;;;;;;;;;;783274;178;919785;-65
2023/11/08 04:25:26;;;;;;;8.05;5.70;;;;;;;;;;781558;178;826248;-65
2023/11/08 04:27:52;;;;;;;12.23;5.60;;;;;;;;;;781503;179;881790;-63
2023/11/08 04:30:18;;;;;;;9.73;5.67;;;;;;;;;;776368;179;918583;-64
2023/11/08 04:32:44;;;;;;;7.17;5.50;;;;;;;;;;771809;177;939745;-64
2023/11/08 04:35:10;;;;;;;5.40;4.40;;;;;;;;;;775097;179;920241;-63
2023/11/08 04:37:37;;;;;;;7.50;5.10;;;;;;;;;;779552;176;919528;-64
2023/11/08 04:40:01;;;;;;;7.50;5.10;;;;;;;;;;774657;179;918100;-63
2023/11/08 04:42:27;;;;;;;6.77;4.73;;;;;;;;;;773293;179;908459;-64
2023/11/08 04:44:53;;;;;;;8.63;4.90;;;;;;;;;;776104;178;918610;-63
2023/11/08 04:47:19;;;;;;;9.50;5.37;;;;;;;;;;775225;179;910723;-63
2023/11/08 04:49:45;;;;;;;9.23;4.63;;;;;;;;;;773402;179;919417;-63
2023/11/08 04:52:10;;;;;;;9.23;4.40;;;;;;;;;;778820;178;813100;-64
2023/11/08 04:54:37;;;;;;;7.63;5.77;;;;;;;;;;785710;179;813445;-63
2023/11/08 04:57:02;;;;;;;6.13;4.47;;;;;;;;;;776823;179;926523;-63
2023/11/08 04:59:28;;;;;;;8.03;4.70;;;;;;;;;;777864;179;896455;-65
2023/11/08 05:01:54;;;;;;;6.80;5.03;;;;;;;;;;777163;175;910841;-65
2023/11/08 05:04:20;;;;;;;8.70;4.53;;;;;;;;;;778121;179;900330;-64
2023/11/08 05:06:45;;;;;;;7.10;4.53;;;;;;;;;;770670;179;870501;-64
2023/11/08 05:09:15;;;;;;;7.73;5.47;;;;;;;;;;775689;175;901993;-64
2023/11/08 05:11:37;;;;;;;7.63;4.80;;;;;;;;;;782594;179;918558;-64
2023/11/08 05:14:03;;;;;;;6.07;4.30;;;;;;;;;;779050;179;869642;-63
2023/11/08 05:16:29;;;;;;;8.10;4.80;;;;;;;;;;775521;179;919608;-66
2023/11/08 05:18:55;;;;;;;8.20;4.60;;;;;;;;;;779488;179;920442;-64
2023/11/08 05:21:21;;;;;;;6.20;4.60;;;;;;;;;;777073;178;811361;-64
2023/11/08 05:23:46;;;;;;;6.23;4.00;;;;;;;;;;778381;178;917875;-66
2023/11/08 05:26:12;;;;;;;6.57;4.32;;;;;;;;;;774504;178;949259;-66
2023/11/08 05:28:38;;;;;;;5.80;3.97;;;;;;;;;;775393;178;897604;-65
2023/11/08 05:31:04;;;;;;;7.37;4.57;;;;;;;;;;780839;178;916814;-64
2023/11/08 05:33:30;;;;;;;6.60;3.80;;;;;;;;;;782791;178;621138;-65
2023/11/08 05:35:56;;;;;;;6.97;4.13;;;;;;;;;;782239;178;614517;-63
2023/11/08 05:38:22;;;;;;;7.17;4.50;;;;;;;;;;778982;178;915318;-64
2023/11/08 05:40:47;;;;;;;4.43;3.50;;;;;;;;;;779940;179;630663;-65
2023/11/08 05:43:13;;;;;;;5.40;3.50;;;;;;;;;;784421;178;809577;-66
2023/11/08 05:45:40;;;;;;;10.47;4.17;;;;;;;;;;776769;178;916341;-64
2023/11/08 05:48:06;;;;;;;6.37;3.87;;;;;;;;;;777175;177;820259;-66
2023/11/08 05:50:32;;;;;;;5.78;3.95;;;;;;;;;;778847;179;918697;-65
2023/11/08 05:52:58;;;;;;;6.50;3.80;;;;;;;;;;767591;180;923811;-65
2023/11/08 05:55:23;;;;;;;7.90;4.50;;;;;;;;;;776321;179;630095;-64
2023/11/08 05:57:49;;;;;;;4.97;3.87;;;;;;;;;;779302;179;920485;-65
2023/11/08 06:00:16;;;;;;;4.87;3.53;;;;;;;;;;778749;179;860279;-65
2023/11/08 06:02:41;;;;;;;5.10;3.20;;;;;;;;;;777345;179;918176;-64
2023/11/08 06:05:08;;;;;;;6.82;4.07;;;;;;;;;;778052;179;923603;-64
2023/11/08 06:07:34;;;;;;;6.23;3.77;;;;;;;;;;778969;179;816755;-65
2023/11/08 06:10:00;;;;;;;9.83;4.53;;;;;;;;;;777098;179;919942;-66
2023/11/08 06:12:25;;;;;;;7.20;3.77;;;;;;;;;;777265;178;918142;-65
2023/11/08 06:14:50;;;;;;;6.80;3.77;;;;;;;;;;779455;180;920343;-66
2023/11/08 06:17:16;;;;;;;4.40;3.40;;;;;;;;;;780738;175;910097;-65
2023/11/08 06:19:42;;;;;;;6.60;3.53;;;;;;;;;;772569;178;915749;-66
2023/11/08 06:22:08;;;;;;;4.35;2.97;;;;;;;;;;778270;176;820490;-65
2023/11/08 06:24:34;;;;;;;6.43;3.40;;;;;;;;;;782261;179;886623;-64
2023/11/08 06:27:00;;;;;;;5.80;3.07;;;;;;;;;;769840;179;921797;-64
2023/11/08 06:29:26;;;;;;;5.53;2.90;;;;;;;;;;775900;179;922013;-65
2023/11/08 06:31:51;;;;;;;4.83;3.47;;;;;;;;;;780949;178;918764;-64
2023/11/08 06:34:17;;;;;;;4.90;2.67;;;;;;;;;;775695;178;920910;-65
2023/11/08 06:36:43;;;;;;;5.83;3.53;;;;;;;;;;777465;178;919447;-65
2023/11/08 06:39:14;;;;;;;5.67;3.57;;;;;;;;;;782554;178;814454;-65
2023/11/08 06:41:35;;;;;;;5.83;3.37;;;;;;;;;;781252;178;816123;-65
2023/11/08 06:44:02;;;;;;;4.40;2.87;;;;;;;;;;777648;178;1017840;-65
2023/11/08 06:46:27;;;;;;;4.93;3.00;;;;;;;;;;779255;178;814970;-66
2023/11/08 06:48:54;;;;;;;5.60;3.47;;;;;;;;;;769685;179;916621;-65
2023/11/08 06:51:19;;;;;;;3.70;2.63;;;;;;;;;;771773;179;916560;-65
2023/11/08 06:53:45;;;;;;;5.93;3.60;;;;;;;;;;775763;179;918802;-64
2023/11/08 06:56:12;;;;;;;5.87;3.00;;;;;;;;;;776158;179;915971;-65
2023/11/08 06:58:37;;;;;;;4.27;2.73;;;;;;;;;;777832;179;916219;-64
2023/11/08 07:01:05;;;;;;;5.83;2.77;;;;;;;;;;777313;179;919125;-63
2023/11/08 07:03:28;;;;;;;7.80;3.00;;;;;;;;;;777291;178;919494;-65
2023/11/08 07:05:54;;;;;;;3.90;2.63;;;;;;;;;;776332;179;914221;-66
2023/11/08 07:08:20;;;;;;;6.20;3.00;;;;;;;;;;775497;177;920178;-65
2023/11/08 07:10:46;;;;;;;5.00;3.10;;;;;;;;;;776503;179;918633;-66
2023/11/08 07:13:12;;;;;;;4.83;2.67;;;;;;;;;;770721;179;919133;-65
2023/11/08 07:15:38;;;;;;;5.37;2.90;;;;;;;;;;773577;178;913422;-65
2023/11/08 07:18:04;;;;;;;5.63;3.93;;;;;;;;;;778954;175;942714;-65
2023/11/08 07:20:30;;;;;;;7.87;3.17;;;;;;;;;;783823;179;913892;-65
2023/11/08 07:22:55;;;;;;;4.30;3.47;;;;;;;;;;777577;177;920271;-64
2023/11/08 07:25:21;;;;;;;6.20;2.67;;;;;;;;;;774298;179;919599;-65
2023/11/08 07:27:47;;;;;;;4.67;2.63;;;;;;;;;;778763;179;918510;-66
2023/11/08 07:30:15;;;;;;;3.80;2.37;;;;;;;;;;777542;178;918942;-65
2023/11/08 07:32:39;;;;;;;4.30;2.60;;;;;;;;;;775465;179;919152;-65
2023/11/08 07:35:05;;;;;;;3.00;2.20;;;;;;;;;;782676;179;919505;-65
2023/11/08 07:37:31;;;;;;;3.92;2.20;;;;;;;;;;779621;179;919299;-65
2023/11/08 07:39:57;;;;;;;3.67;2.20;;;;;;;;;;777199;179;919051;-65
2023/11/08 07:42:22;;;;;;;3.20;2.10;;;;;;;;;;774045;178;918725;-67
2023/11/08 07:44:48;;;;;;;3.43;2.30;;;;;;;;;;782690;178;915255;-65
2023/11/08 07:47:14;;;;;;;6.17;2.37;;;;;;;;;;775325;178;916682;-65
2023/11/08 07:49:40;;;;;;;4.20;2.00;;;;;;;;;;781256;178;816636;-67
2023/11/08 07:52:06;;;;;;;6.43;1.93;;;;;;;;;;786011;175;905642;-66
2023/11/08 07:54:35;;;;;;;4.10;2.60;;;;;;;;;;774030;178;919234;-67
2023/11/08 07:56:57;;;;;;;5.17;2.17;;;;;;;;;;773579;179;931392;-67
2023/11/08 07:59:23;;;;;;;3.87;2.10;;;;;;;;;;779823;178;920706;-68
2023/11/08 08:01:49;;;;;;;3.70;1.93;;;;;;;;;;770010;177;919516;-67
2023/11/08 08:04:15;;;;;;;4.43;2.40;;;;;;;;;;777867;179;920975;-66
2023/11/08 08:06:41;;;;;;;4.10;1.97;;;;;;;;;;777125;179;916260;-67
2023/11/08 08:09:10;;;;;;;4.60;2.40;;;;;;;;;;775028;180;817520;-67
2023/11/08 08:11:33;;;;;;;3.80;2.47;;;;;;;;;;778975;179;919831;-66
2023/11/08 08:13:58;;;;;;;4.47;2.13;;;;;;;;;;782759;179;902550;-67
2023/11/08 08:16:24;;;;;;;5.77;2.40;;;;;;;;;;775541;179;763419;-67
2023/11/08 08:18:50;;;;;;;4.67;1.97;;;;;;;;;;774105;177;915870;-69
2023/11/08 08:21:17;;;;;;;3.40;1.60;;;;;;;;;;776675;178;918546;-67
2023/11/08 08:23:42;;;;;;;5.50;2.10;;;;;;;;;;776216;178;919966;-66
2023/11/08 08:26:08;;;;;;;8.30;2.37;;;;;;;;;;777890;179;919164;-68
2023/11/08 08:28:35;;;;;;;4.30;2.07;;;;;;;;;;767734;179;921210;-67
2023/11/08 08:30:59;;;;;;;3.50;1.90;;;;;;;;;;781111;179;919277;-65
2023/11/08 08:33:25;;;;;;;4.10;1.87;;;;;;;;;;772339;179;919281;-68
2023/11/08 08:35:51;;;;;;;3.30;1.60;;;;;;;;;;769292;179;915440;-68
2023/11/08 08:38:17;;;;;;;4.87;1.63;;;;;;;;;;773517;179;916114;-65
2023/11/08 08:40:43;;;;;;;3.53;1.97;;;;;;;;;;779924;179;919295;-67
2023/11/08 08:43:08;;;;;;;9.27;2.40;;;;;;;;;;771565;179;921104;-67
2023/11/08 08:45:34;;;;;;;6.03;2.20;;;;;;;;;;772798;179;920869;-66
2023/11/08 08:48:00;;;;;;;3.25;1.42;;;;;;;;;;782909;178;815396;-66
2023/11/08 08:50:26;;;;;;;4.53;1.60;;;;;;;;;;771835;180;919102;-68
2023/11/08 08:52:52;;;;;;;5.50;2.20;;;;;;;;;;776470;179;929939;-66
2023/11/08 08:55:18;;;;;;;5.03;2.30;;;;;;;;;;782665;178;919584;-67
2023/11/08 08:57:45;;;;;;;3.40;1.70;;;;;;;;;;773130;179;918814;-68
2023/11/08 09:00:10;;;;;;;3.13;1.77;;;;;;;;;;776460;178;919207;-68
2023/11/08 09:02:36;;;;;;;3.07;1.67;;;;;;;;;;774146;178;928835;-68
2023/11/08 09:05:02;;;;;;;3.80;1.60;;;;;;;;;;772787;179;917019;-66
2023/11/08 09:07:27;;;;;;;5.20;2.03;;;;;;;;;;778171;178;919707;-65
2023/11/08 09:09:53;;;;;;;4.97;2.10;;;;;;;;;;777999;178;918310;-68
2023/11/08 09:12:19;;;;;;;4.40;2.07;;;;;;;;;;776890;176;861248;-66
2023/11/08 09:14:53;;;;;;;6.55;2.40;;;;;;;;;;771031;179;914481;-67
2023/11/08 09:17:19;;;;;;;4.23;1.87;;;;;;;;;;770880;179;905163;-67
2023/11/08 09:19:45;;;;;;;4.37;1.70;;;;;;;;;;773413;179;917850;-65
2023/11/08 09:22:12;;;;;;;4.80;1.80;;;;;;;;;;780488;179;919139;-68
2023/11/08 09:24:36;;;;;;;4.30;1.90;;;;;;;;;;777104;179;922905;-64
2023/11/08 09:27:02;;;;;;;4.80;1.80;;;;;;;;;;777058;179;921492;-65
2023/11/08 09:29:29;;;;;;;3.40;1.87;;;;;;;;;;780401;179;923378;-68
2023/11/08 09:31:56;;;;;;;5.60;2.17;;;;;;;;;;776031;179;918783;-68
2023/11/08 09:34:20;;;;;;;5.13;1.90;;;;;;;;;;773320;179;920547;-67
2023/11/08 09:36:47;;;;;;;4.17;1.97;;;;;;;;;;780314;179;789901;-69
2023/11/08 09:39:12;;;;;;;5.50;2.10;;;;;;;;;;777932;178;918261;-65
2023/11/08 09:41:38;;;;;;;4.90;2.17;;;;;;;;;;774386;179;918297;-64
2023/11/08 09:44:03;;;;;;;3.40;1.77;;;;;;;;;;773230;179;919098;-67
2023/11/08 09:46:31;;;;;;;4.20;1.87;;;;;;;;;;769793;181;918663;-65
2023/11/08 09:48:55;;;;;;;6.87;2.30;;;;;;;;;;774882;178;919374;-68
2023/11/08 09:51:21;;;;;;;3.00;1.80;;;;;;;;;;778398;179;919595;-66
2023/11/08 09:53:47;;;;;;;4.40;2.30;;;;;;;;;;779705;179;918886;-65
2023/11/08 09:56:13;;;;;;;6.00;2.60;;;;;;;;;;778672;178;923042;-64
2023/11/08 09:58:39;;;;;;;6.15;2.62;;;;;;;;;;782976;178;917463;-68
2023/11/08 10:01:05;;;;;;;4.43;2.43;;;;;;;;;;779863;179;918147;-67
2023/11/08 10:03:32;;;;;;;6.93;2.30;;;;;;;;;;776109;180;815633;-67
2023/11/08 10:05:57;;;;;;;3.50;1.90;;;;;;;;;;774916;179;919284;-68
2023/11/08 10:08:23;;;;;;;7.00;2.60;;;;;;;;;;787259;178;917448;-67
2023/11/08 10:10:49;;;;;;;5.67;2.43;;;;;;;;;;780183;178;860446;-64
2023/11/08 10:13:15;;;;;;;12.33;4.30;;;;;;;;;;776875;177;875006;-68
2023/11/08 10:15:41;;;;;;;3.53;2.10;;;;;;;;;;769433;178;917644;-66
2023/11/08 10:18:08;;;;;;;5.70;2.50;;;;;;;;;;787002;177;918234;-69
2023/11/08 10:20:35;;;;;;;4.10;2.30;;;;;;;;;;773074;178;919859;-68
2023/11/08 10:22:59;;;;;;;3.67;2.30;;;;;;;;;;773658;179;928922;-66
2023/11/08 10:25:26;;;;;;;8.30;2.40;;;;;;;;;;777072;179;918533;-66
2023/11/08 10:27:50;;;;;;;9.07;2.90;;;;;;;;;;773454;178;942155;-68
2023/11/08 10:30:16;;;;;;;3.50;2.20;;;;;;;;;;773323;178;813919;-65
2023/11/08 10:32:43;;;;;;;4.90;2.67;;;;;;;;;;779025;179;819040;-68
2023/11/08 10:35:14;;;;;;;4.27;2.70;;;;;;;;;;774246;179;909688;-66
2023/11/08 10:37:40;;;;;;;4.80;2.57;;;;;;;;;;775452;179;918816;-68
2023/11/08 10:40:08;;;;;;;5.43;2.40;;;;;;;;;;774143;179;919530;-66
2023/11/08 10:42:32;;;;;;;6.20;2.27;;;;;;;;;;784671;179;919207;-64
2023/11/08 10:45:04;;;;;;;9.90;2.47;;;;;;;;;;775434;179;918029;-65
2023/11/08 10:47:30;;;;;;;3.07;1.63;;;;;;;;;;775614;179;871562;-66
2023/11/08 10:49:56;;;;;;;3.80;2.10;;;;;;;;;;775729;179;824075;-68
2023/11/08 10:52:22;;;;;;;3.27;2.20;;;;;;;;;;780748;178;875791;-65
2023/11/08 10:54:47;;;;;;;4.63;1.90;;;;;;;;;;779630;178;918076;-65
2023/11/08 10:57:13;;;;;;;4.30;2.20;;;;;;;;;;777729;177;919053;-67
2023/11/08 10:59:39;;;;;;;5.23;1.70;;;;;;;;;;780288;179;836162;-68
2023/11/08 11:02:05;;;;;;;2.97;1.57;;;;;;;;;;778812;176;814847;-64
2023/11/08 11:04:31;;;;;;;4.90;2.00;;;;;;;;;;777165;178;916230;-68
2023/11/08 11:06:57;;;;;;;5.23;2.30;;;;;;;;;;781722;179;927652;-68
2023/11/08 11:09:22;;;;;;;3.07;1.77;;;;;;;;;;773945;179;918221;-65
2023/11/08 11:11:50;;;;;;;7.57;1.87;;;;;;;;;;776970;179;935845;-67
2023/11/08 11:14:15;;;;;;;6.87;4.13;;;;;;;;;;772179;179;918962;-64
2023/11/08 11:16:41;;;;;;;4.23;1.90;;;;;;;;;;780345;176;881536;-67
2023/11/08 11:19:08;;;;;;;3.97;2.03;;;;;;;;;;777075;176;849188;-68
2023/11/08 11:21:34;;;;;;;5.63;1.70;;;;;;;;;;777924;178;913601;-68
2023/11/08 11:23:58;;;;;;;4.60;1.90;;;;;;;;;;779897;178;919452;-65
2023/11/08 11:26:30;;;;;;;3.80;2.17;;;;;;;;;;775174;178;926873;-68
2023/11/08 11:28:56;;;;;;;3.40;1.70;;;;;;;;;;779085;178;917386;-68
2023/11/08 11:31:28;;;;;;;3.67;1.80;;;;;;;;;;774976;179;918715;-65
2023/11/08 11:33:53;;;;;;;3.50;1.77;;;;;;;;;;781956;178;918809;-65
2023/11/08 11:36:19;;;;;;;5.37;2.27;;;;;;;;;;779940;179;929451;-67
2023/11/08 11:38:45;;;;;;;4.87;1.90;;;;;;;;;;778356;179;918813;-69
2023/11/08 11:41:17;;;;;;;7.53;2.20;;;;;;;;;;778046;179;918835;-67
2023/11/08 11:43:43;;;;;;;5.23;2.83;;;;;;;;;;777076;179;817988;-68
2023/11/08 11:46:09;;;;;;;4.33;1.93;;;;;;;;;;780273;178;919566;-69
2023/11/08 11:48:34;;;;;;;8.00;1.60;;;;;;;;;;774068;179;918582;-69
2023/11/08 11:51:01;;;;;;;5.50;1.50;;;;;;;;;;785363;179;816475;-66
2023/11/08 11:53:26;;;;;;;7.17;1.73;;;;;;;;;;780530;179;816105;-69
2023/11/08 11:55:52;;;;;;;7.53;1.57;;;;;;;;;;777842;180;824443;-67
2023/11/08 11:58:18;;;;;;;4.80;1.57;;;;;;;;;;784409;179;918085;-69
2023/11/08 12:00:44;;;;;;;6.47;2.03;;;;;;;;;;774627;179;918190;-68
2023/11/08 12:03:09;;;;;;;3.20;1.90;;;;;;;;;;775667;179;836773;-67
2023/11/08 12:05:35;;;;;;;5.30;1.80;;;;;;;;;;772914;179;873077;-69
2023/11/08 12:08:01;;;;;;;3.70;1.80;;;;;;;;;;771413;180;916354;-70
2023/11/08 12:10:29;;;;;;;4.17;2.00;;;;;;;;;;779684;178;918958;-67
2023/11/08 12:12:53;;;;;;;4.10;2.23;;;;;;;;;;777187;179;922547;-67
2023/11/08 12:15:22;;;;;;;10.13;2.87;;;;;;;;;;782659;179;919118;-67
2023/11/08 12:17:47;;;;;;;4.20;2.17;;;;;;;;;;777268;177;870778;-67
2023/11/08 12:20:13;;;;;;;6.43;2.47;;;;;;;;;;777376;179;876607;-69
2023/11/08 12:22:38;;;;;;;3.50;1.63;;;;;;;;;;780413;179;812661;-67
2023/11/08 12:25:04;;;;;;;2.50;1.47;;;;;;;;;;783090;178;921391;-68
2023/11/08 12:27:30;;;;;;;4.63;2.10;;;;;;;;;;775169;179;920636;-67
2023/11/08 12:29:56;;;;;;;4.43;1.67;;;;;;;;;;778100;178;872541;-69
2023/11/08 12:32:22;;;;;;;6.03;1.80;;;;;;;;;;773152;179;820462;-68
2023/11/08 12:34:48;;;;;;;7.03;2.00;;;;;;;;;;777272;178;915500;-69
2023/11/08 12:37:14;;;;;;;7.23;2.47;;;;;;;;;;783573;178;707533;-69
2023/11/08 12:39:39;;;;;;;4.93;2.10;;;;;;;;;;783724;179;657233;-69
2023/11/08 12:42:05;;;;;;;4.00;2.17;;;;;;;;;;774421;177;920101;-69
2023/11/08 12:44:31;;;;;;;6.37;2.70;;;;;;;;;;779409;178;624214;-69
2023/11/08 12:46:59;;;;;;;5.80;2.40;;;;;;;;;;783231;176;625947;-68
2023/11/08 12:49:24;;;;;;;8.53;2.57;;;;;;;;;;781081;179;632103;-68
2023/11/08 12:51:50;;;;;;;6.07;3.10;;;;;;;;;;776164;179;919305;-69
2023/11/08 12:54:17;;;;;;;6.10;2.47;;;;;;;;;;778452;179;918024;-69
2023/11/08 12:56:42;;;;;;;5.30;2.80;;;;;;;;;;769100;180;815286;-68
2023/11/08 12:59:10;;;;;;;6.23;2.40;;;;;;;;;;778022;179;813684;-68
2023/11/08 13:01:36;;;;;;;8.50;2.37;;;;;;;;;;778755;179;920999;-68
2023/11/08 13:04:02;;;;;;;6.37;2.60;;;;;;;;;;776966;179;908318;-69
2023/11/08 13:06:30;;;;;;;4.30;2.10;;;;;;;;;;780078;179;916987;-68
2023/11/08 13:08:54;;;;;;;6.90;2.60;;;;;;;;;;772939;179;921155;-68
2023/11/08 13:11:20;;;;;;;10.85;1.95;;;;;;;;;;774874;179;818586;-68
2023/11/08 13:13:45;;;;;;;4.10;2.17;;;;;;;;;;773309;178;921876;-69
2023/11/08 13:16:11;;;;;;;5.90;4.47;;;;;;;;;;778857;179;915842;-68
2023/11/08 13:18:37;;;;;;;10.07;6.23;;;;;;;;;;775794;179;904535;-69
2023/11/08 13:21:03;;;;;;;6.20;2.57;;;;;;;;;;770899;180;901119;-67
2023/11/08 13:23:29;;;;;;;9.60;3.03;;;;;;;;;;772631;179;920322;-67
2023/11/08 13:25:55;;;;;;;5.45;2.47;;;;;;;;;;776923;179;918774;-68
2023/11/08 13:28:21;;;;;;;6.47;2.77;;;;;;;;;;782939;177;916824;-67
2023/11/08 13:30:47;;;;;;;5.00;2.80;;;;;;;;;;773897;180;921803;-67
2023/11/08 13:33:12;;;;;;;7.40;3.00;;;;;;;;;;778427;179;919345;-68
2023/11/08 13:35:39;;;;;;;5.63;2.57;;;;;;;;;;781800;179;918752;-68
2023/11/08 13:38:04;;;;;;;5.30;2.27;;;;;;;;;;775048;176;913097;-68
2023/11/08 13:40:30;;;;;;;5.30;2.40;;;;;;;;;;781293;178;888793;-69
2023/11/08 13:42:57;;;;;;;4.05;2.15;;;;;;;;;;785241;177;634386;-68
2023/11/08 13:45:23;;;;;;;5.40;2.17;;;;;;;;;;778846;180;627170;-69
2023/11/08 13:47:48;;;;;;;5.67;2.27;;;;;;;;;;779927;177;918967;-68
2023/11/08 13:50:15;;;;;;;7.60;3.00;;;;;;;;;;778407;178;815959;-69
2023/11/08 13:52:40;;;;;;;5.20;2.60;;;;;;;;;;787181;176;918677;-67
2023/11/08 13:55:06;;;;;;;20.30;10.83;;;;;;;;;;775125;178;912378;-68
2023/11/08 13:57:32;;;;;;;8.00;5.17;;;;;;;;;;777377;178;926584;-69
2023/11/08 13:59:58;;;;;;;7.97;2.95;;;;;;;;;;783693;179;724539;-70
2023/11/08 14:02:25;;;;;;;6.27;2.80;;;;;;;;;;769414;179;918481;-69
2023/11/08 14:04:49;;;;;;;7.93;2.50;;;;;;;;;;781719;179;816163;-68
2023/11/08 14:07:16;;;;;;;4.03;2.00;;;;;;;;;;777098;178;765012;-67
2023/11/08 14:09:41;;;;;;;4.73;1.90;;;;;;;;;;779561;179;921040;-67
2023/11/08 14:12:09;;;;;;;7.10;2.20;;;;;;;;;;781096;179;815888;-69
2023/11/08 14:14:33;;;;;;;6.40;2.13;;;;;;;;;;776279;179;917421;-69
2023/11/08 14:16:59;;;;;;;5.30;2.60;;;;;;;;;;781296;179;915779;-67